createdAt,value
2018-04-18T00:00:59.982Z,222
2018-04-18T00:02:07.194Z,222
2018-04-18T00:03:14.149Z,221
2018-04-18T00:04:21.351Z,222
2018-04-18T00:05:28.606Z,222
2018-04-18T00:06:35.816Z,222
2018-04-18T00:07:42.751Z,222
2018-04-18T00:08:49.680Z,222
2018-04-18T00:09:56.951Z,222
2018-04-18T00:11:03.881Z,222
2018-04-18T00:12:11.220Z,222
2018-04-18T00:13:17.877Z,222
2018-04-18T00:14:24.810Z,222
2018-04-18T00:15:31.742Z,222
2018-04-18T00:16:38.950Z,222
2018-04-18T00:17:46.167Z,221
2018-04-18T00:18:53.107Z,222
2018-04-18T00:20:00.327Z,221
2018-04-18T00:21:07.537Z,222
2018-04-18T00:22:14.749Z,222
2018-04-18T00:23:21.956Z,222
2018-04-18T00:24:29.186Z,222
2018-04-18T00:25:36.391Z,222
2018-04-18T00:26:43.317Z,222
2018-04-18T00:27:50.519Z,222
2018-04-18T00:28:57.728Z,222
2018-04-18T00:30:04.658Z,222
2018-04-18T00:31:11.864Z,222
2018-04-18T00:32:19.078Z,222
2018-04-18T00:33:26.285Z,222
2018-04-18T00:34:33.497Z,222
2018-04-18T00:35:40.726Z,223
2018-04-18T00:36:47.930Z,223
2018-04-18T00:37:54.872Z,223
2018-04-18T00:39:02.080Z,223
2018-04-18T00:40:09.296Z,223
2018-04-18T00:41:16.534Z,222
2018-04-18T00:42:23.766Z,223
2018-04-18T00:43:30.967Z,223
2018-04-18T00:44:37.904Z,223
2018-04-18T00:45:45.110Z,223
2018-04-18T00:46:52.321Z,222
2018-04-18T00:47:59.261Z,223
2018-04-18T00:49:06.467Z,223
2018-04-18T00:50:13.676Z,222
2018-04-18T00:51:20.908Z,222
2018-04-18T00:52:28.109Z,222
2018-04-18T00:53:34.763Z,222
2018-04-18T00:54:41.977Z,222
2018-04-18T00:55:49.183Z,223
2018-04-18T00:56:56.391Z,222
2018-04-18T00:58:03.588Z,223
2018-04-18T00:59:10.796Z,222
2018-04-18T01:00:18.006Z,222
2018-04-18T01:01:25.219Z,222
2018-04-18T01:02:32.425Z,222
2018-04-18T01:03:39.628Z,222
2018-04-18T01:04:46.983Z,222
2018-04-18T01:05:54.265Z,222
2018-04-18T01:07:01.482Z,222
2018-04-18T01:08:08.730Z,222
2018-04-18T01:09:15.947Z,222
2018-04-18T01:10:23.154Z,222
2018-04-18T01:11:30.366Z,222
2018-04-18T01:12:37.575Z,222
2018-04-18T01:13:44.785Z,222
2018-04-18T01:14:51.733Z,222
2018-04-18T01:15:58.942Z,223
2018-04-18T01:17:05.878Z,222
2018-04-18T01:18:12.807Z,223
2018-04-18T01:19:19.746Z,223
2018-04-18T01:20:26.670Z,223
2018-04-18T01:21:33.882Z,223
2018-04-18T01:22:41.084Z,223
2018-04-18T01:23:48.289Z,223
2018-04-18T01:24:55.502Z,223
2018-04-18T01:26:02.711Z,223
2018-04-18T01:27:09.922Z,223
2018-04-18T01:28:17.127Z,223
2018-04-18T01:29:24.332Z,223
2018-04-18T01:30:31.538Z,224
2018-04-18T01:31:38.767Z,224
2018-04-18T01:32:45.976Z,224
2018-04-18T01:33:53.181Z,224
2018-04-18T01:35:00.385Z,223
2018-04-18T01:36:07.588Z,224
2018-04-18T01:37:14.794Z,223
2018-04-18T01:38:22.012Z,223
2018-04-18T01:39:29.224Z,223
2018-04-18T01:40:36.435Z,223
2018-04-18T01:41:43.634Z,223
2018-04-18T01:42:50.843Z,223
2018-04-18T01:43:57.800Z,223
2018-04-18T01:45:05.003Z,223
2018-04-18T01:46:12.210Z,223
2018-04-18T01:47:19.420Z,223
2018-04-18T01:48:26.637Z,222
2018-04-18T01:49:33.849Z,222
2018-04-18T01:50:41.050Z,221
2018-04-18T01:51:47.986Z,221
2018-04-18T01:52:54.913Z,222
2018-04-18T01:54:02.123Z,222
2018-04-18T01:55:09.337Z,221
2018-04-18T01:56:16.554Z,221
2018-04-18T01:57:23.754Z,221
2018-04-18T01:58:30.957Z,221
2018-04-18T01:59:37.925Z,221
2018-04-18T02:00:44.875Z,221
2018-04-18T02:01:52.092Z,221
2018-04-18T02:02:59.429Z,221
2018-04-18T02:04:06.362Z,221
2018-04-18T02:05:13.575Z,221
2018-04-18T02:06:20.528Z,221
2018-04-18T02:07:27.738Z,221
2018-04-18T02:08:34.959Z,221
2018-04-18T02:09:41.890Z,221
2018-04-18T02:10:49.092Z,221
2018-04-18T02:11:56.302Z,221
2018-04-18T02:13:16.907Z,221
2018-04-18T02:14:24.135Z,220
2018-04-18T02:15:31.076Z,221
2018-04-18T02:16:38.292Z,221
2018-04-18T02:17:45.218Z,220
2018-04-18T02:18:52.155Z,220
2018-04-18T02:19:59.364Z,221
2018-04-18T02:21:06.565Z,221
2018-04-18T02:22:13.766Z,220
2018-04-18T02:23:20.995Z,220
2018-04-18T02:24:27.932Z,220
2018-04-18T02:25:35.147Z,220
2018-04-18T02:26:42.347Z,220
2018-04-18T02:27:49.554Z,220
2018-04-18T02:28:56.757Z,221
2018-04-18T02:30:03.482Z,220
2018-04-18T02:31:10.702Z,221
2018-04-18T02:32:17.908Z,220
2018-04-18T02:33:25.123Z,221
2018-04-18T02:34:32.069Z,221
2018-04-18T02:35:39.276Z,220
2018-04-18T02:36:46.483Z,220
2018-04-18T02:37:53.688Z,220
2018-04-18T02:39:00.898Z,220
2018-04-18T02:40:08.324Z,221
2018-04-18T02:41:15.530Z,220
2018-04-18T02:42:22.735Z,220
2018-04-18T02:43:29.938Z,221
2018-04-18T02:44:37.147Z,221
2018-04-18T02:45:44.354Z,220
2018-04-18T02:46:51.301Z,220
2018-04-18T02:47:58.515Z,220
2018-04-18T02:49:05.719Z,220
2018-04-18T02:50:12.927Z,220
2018-04-18T02:51:20.131Z,220
2018-04-18T02:52:27.332Z,220
2018-04-18T02:53:34.534Z,220
2018-04-18T02:54:41.744Z,220
2018-04-18T02:55:48.948Z,220
2018-04-18T02:56:56.149Z,220
2018-04-18T02:58:03.088Z,220
2018-04-18T02:59:10.313Z,219
2018-04-18T03:00:17.515Z,219
2018-04-18T03:01:24.746Z,220
2018-04-18T03:02:31.694Z,219
2018-04-18T03:03:38.650Z,219
2018-04-18T03:04:45.597Z,219
2018-04-18T03:05:52.802Z,219
2018-04-18T03:07:00.026Z,219
2018-04-18T03:08:07.230Z,219
2018-04-18T03:09:14.670Z,220
2018-04-18T03:10:21.876Z,220
2018-04-18T03:11:29.117Z,219
2018-04-18T03:12:36.323Z,220
2018-04-18T03:13:43.544Z,219
2018-04-18T03:14:50.787Z,220
2018-04-18T03:15:58.016Z,219
2018-04-18T03:17:05.244Z,220
2018-04-18T03:18:12.667Z,220
2018-04-18T03:19:19.874Z,220
2018-04-18T03:20:27.311Z,220
2018-04-18T03:21:34.536Z,220
2018-04-18T03:22:41.764Z,219
2018-04-18T03:23:48.960Z,220
2018-04-18T03:24:56.168Z,219
2018-04-18T03:26:03.398Z,219
2018-04-18T03:27:10.617Z,219
2018-04-18T03:28:17.846Z,219
2018-04-18T03:29:24.814Z,219
2018-04-18T03:30:31.745Z,219
2018-04-18T03:31:39.452Z,219
2018-04-18T03:32:46.687Z,219
2018-04-18T03:33:53.892Z,219
2018-04-18T03:35:01.102Z,219
2018-04-18T03:36:08.311Z,220
2018-04-18T03:37:15.518Z,219
2018-04-18T03:38:22.954Z,220
2018-04-18T03:39:30.168Z,220
2018-04-18T03:40:37.393Z,220
2018-04-18T03:41:44.611Z,220
2018-04-18T03:42:51.837Z,219
2018-04-18T03:43:58.784Z,219
2018-04-18T03:45:05.990Z,219
2018-04-18T03:46:13.197Z,219
2018-04-18T03:47:20.366Z,219
2018-04-18T03:48:27.577Z,219
2018-04-18T03:49:34.996Z,219
2018-04-18T03:50:41.931Z,219
2018-04-18T03:51:49.132Z,219
2018-04-18T03:52:56.370Z,219
2018-04-18T03:54:03.574Z,219
2018-04-18T03:55:10.810Z,219
2018-04-18T03:56:18.003Z,220
2018-04-18T03:57:25.215Z,219
2018-04-18T03:58:32.154Z,219
2018-04-18T03:59:39.395Z,219
2018-04-18T04:00:46.604Z,220
2018-04-18T04:01:53.811Z,219
2018-04-18T04:03:01.061Z,219
2018-04-18T04:04:08.283Z,219
2018-04-18T04:05:15.492Z,220
2018-04-18T04:06:22.717Z,220
2018-04-18T04:07:29.925Z,219
2018-04-18T04:08:37.155Z,219
2018-04-18T04:09:44.390Z,219
2018-04-18T04:10:51.591Z,219
2018-04-18T04:11:58.832Z,219
2018-04-18T04:13:06.044Z,219
2018-04-18T04:14:13.247Z,219
2018-04-18T04:15:20.463Z,219
2018-04-18T04:16:27.751Z,219
2018-04-18T04:17:34.956Z,219
2018-04-18T04:18:42.166Z,219
2018-04-18T04:19:49.373Z,219
2018-04-18T04:20:56.305Z,219
2018-04-18T04:22:03.518Z,219
2018-04-18T04:23:10.735Z,219
2018-04-18T04:24:18.173Z,219
2018-04-18T04:25:25.404Z,219
2018-04-18T04:26:32.629Z,219
2018-04-18T04:27:39.602Z,219
2018-04-18T04:28:46.815Z,218
2018-04-18T04:29:53.782Z,219
2018-04-18T04:31:00.998Z,219
2018-04-18T04:32:07.926Z,218
2018-04-18T04:33:15.371Z,219
2018-04-18T04:34:22.304Z,218
2018-04-18T04:35:29.561Z,218
2018-04-18T04:36:36.767Z,218
2018-04-18T04:37:43.976Z,218
2018-04-18T04:38:50.634Z,218
2018-04-18T04:39:57.836Z,218
2018-04-18T04:41:04.796Z,218
2018-04-18T04:42:12.027Z,218
2018-04-18T04:43:19.232Z,218
2018-04-18T04:44:25.882Z,218
2018-04-18T04:45:33.087Z,218
2018-04-18T04:46:40.530Z,218
2018-04-18T04:47:47.738Z,218
2018-04-18T04:48:54.944Z,217
2018-04-18T04:50:02.149Z,217
2018-04-18T04:51:09.381Z,217
2018-04-18T04:52:16.594Z,217
2018-04-18T04:53:23.821Z,218
2018-04-18T04:54:30.756Z,217
2018-04-18T04:55:37.952Z,217
2018-04-18T04:56:45.159Z,218
2018-04-18T04:57:52.394Z,218
2018-04-18T04:58:59.065Z,217
2018-04-18T05:00:06.519Z,217
2018-04-18T05:01:13.723Z,217
2018-04-18T05:02:21.266Z,217
2018-04-18T05:03:28.204Z,217
2018-04-18T05:04:35.411Z,217
2018-04-18T05:05:42.614Z,217
2018-04-18T05:06:49.819Z,217
2018-04-18T05:07:57.023Z,217
2018-04-18T05:09:04.228Z,216
2018-04-18T05:10:11.158Z,216
2018-04-18T05:11:18.365Z,216
2018-04-18T05:12:25.587Z,216
2018-04-18T05:13:32.791Z,216
2018-04-18T05:14:39.717Z,216
2018-04-18T05:15:46.942Z,216
2018-04-18T05:16:54.160Z,216
2018-04-18T05:18:01.364Z,216
2018-04-18T05:19:08.569Z,216
2018-04-18T05:20:15.783Z,216
2018-04-18T05:21:22.996Z,215
2018-04-18T05:22:29.932Z,215
2018-04-18T05:23:37.144Z,215
2018-04-18T05:24:44.349Z,215
2018-04-18T05:25:51.567Z,215
2018-04-18T05:26:58.774Z,215
2018-04-18T05:28:06.238Z,215
2018-04-18T05:29:13.448Z,214
2018-04-18T05:30:20.699Z,214
2018-04-18T05:31:27.893Z,214
2018-04-18T05:32:35.102Z,214
2018-04-18T05:33:42.026Z,214
2018-04-18T05:34:49.521Z,214
2018-04-18T05:35:56.449Z,213
2018-04-18T05:37:03.675Z,213
2018-04-18T05:38:10.887Z,213
2018-04-18T05:39:18.102Z,213
2018-04-18T05:40:25.354Z,213
2018-04-18T05:41:32.564Z,212
2018-04-18T05:42:39.778Z,213
2018-04-18T05:43:46.982Z,213
2018-04-18T05:44:54.188Z,213
2018-04-18T05:46:01.137Z,212
2018-04-18T05:47:08.340Z,212
2018-04-18T05:48:15.304Z,212
2018-04-18T05:49:22.505Z,212
2018-04-18T05:50:29.458Z,211
2018-04-18T05:51:36.387Z,211
2018-04-18T05:52:43.594Z,211
2018-04-18T05:53:50.300Z,211
2018-04-18T05:54:57.501Z,211
2018-04-18T05:56:04.442Z,211
2018-04-18T05:57:11.100Z,210
2018-04-18T05:58:18.038Z,210
2018-04-18T05:59:25.264Z,210
2018-04-18T06:00:32.464Z,210
2018-04-18T06:01:39.687Z,210
2018-04-18T06:02:46.343Z,210
2018-04-18T06:03:53.545Z,209
2018-04-18T06:05:00.749Z,209
2018-04-18T06:06:07.968Z,208
2018-04-18T06:07:15.234Z,208
2018-04-18T06:08:22.435Z,209
2018-04-18T06:09:29.651Z,208
2018-04-18T06:10:36.865Z,208
2018-04-18T06:11:44.070Z,208
2018-04-18T06:12:51.292Z,208
2018-04-18T06:13:58.513Z,208
2018-04-18T06:15:05.448Z,207
2018-04-18T06:16:12.659Z,207
2018-04-18T06:17:19.864Z,207
2018-04-18T06:18:27.071Z,207
2018-04-18T06:19:34.283Z,207
2018-04-18T06:20:41.502Z,207
2018-04-18T06:21:48.703Z,206
2018-04-18T06:22:55.909Z,206
2018-04-18T06:24:03.119Z,206
2018-04-18T06:25:10.050Z,206
2018-04-18T06:26:17.258Z,206
2018-04-18T06:27:24.470Z,206
2018-04-18T06:28:31.678Z,206
2018-04-18T06:29:38.894Z,206
2018-04-18T06:30:45.839Z,206
2018-04-18T06:31:53.042Z,207
2018-04-18T06:32:59.994Z,207
2018-04-18T06:34:07.210Z,207
2018-04-18T06:35:14.445Z,208
2018-04-18T06:36:21.652Z,209
2018-04-18T06:37:28.610Z,210
2018-04-18T06:38:35.558Z,212
2018-04-18T06:39:42.501Z,213
2018-04-18T06:40:49.714Z,212
2018-04-18T06:41:56.939Z,210
2018-04-18T06:43:04.171Z,209
2018-04-18T06:44:11.395Z,207
2018-04-18T06:45:18.610Z,205
2018-04-18T06:46:25.542Z,203
2018-04-18T06:47:32.752Z,202
2018-04-18T06:48:39.680Z,201
2018-04-18T06:49:46.890Z,201
2018-04-18T06:50:53.832Z,201
2018-04-18T06:52:01.037Z,201
2018-04-18T06:53:08.252Z,201
2018-04-18T06:54:15.466Z,202
2018-04-18T06:55:22.674Z,202
2018-04-18T06:56:29.883Z,202
2018-04-18T06:57:36.857Z,202
2018-04-18T06:58:44.114Z,202
2018-04-18T06:59:51.335Z,203
2018-04-18T07:00:58.269Z,203
2018-04-18T07:02:05.476Z,203
2018-04-18T07:03:12.691Z,203
2018-04-18T07:04:19.905Z,202
2018-04-18T07:05:26.840Z,202
2018-04-18T07:06:33.785Z,203
2018-04-18T07:07:41.009Z,203
2018-04-18T07:08:48.222Z,203
2018-04-18T07:09:55.175Z,203
2018-04-18T07:11:02.398Z,203
2018-04-18T07:12:09.332Z,204
2018-04-18T07:13:16.549Z,203
2018-04-18T07:14:23.763Z,203
2018-04-18T07:15:30.989Z,203
2018-04-18T07:16:38.201Z,203
2018-04-18T07:17:45.410Z,203
2018-04-18T07:18:52.624Z,203
2018-04-18T07:19:59.833Z,202
2018-04-18T07:21:07.046Z,203
2018-04-18T07:22:13.989Z,203
2018-04-18T07:23:20.643Z,203
2018-04-18T07:24:27.860Z,203
2018-04-18T07:25:35.086Z,203
2018-04-18T07:26:41.741Z,204
2018-04-18T07:27:48.951Z,204
2018-04-18T07:28:56.160Z,204
2018-04-18T07:30:03.368Z,204
2018-04-18T07:31:10.588Z,204
2018-04-18T07:32:17.801Z,204
2018-04-18T07:33:25.014Z,203
2018-04-18T07:34:32.234Z,202
2018-04-18T07:35:39.452Z,203
2018-04-18T07:36:46.666Z,203
2018-04-18T07:37:53.888Z,202
2018-04-18T07:39:01.111Z,202
2018-04-18T07:40:08.415Z,202
2018-04-18T07:41:15.442Z,201
2018-04-18T07:42:22.658Z,201
2018-04-18T07:43:29.610Z,201
2018-04-18T07:44:36.817Z,201
2018-04-18T07:45:44.031Z,201
2018-04-18T07:46:51.249Z,202
2018-04-18T07:47:58.198Z,203
2018-04-18T07:49:05.417Z,203
2018-04-18T07:50:12.636Z,202
2018-04-18T07:51:19.846Z,202
2018-04-18T07:52:26.794Z,202
2018-04-18T07:53:33.993Z,201
2018-04-18T07:54:41.205Z,201
2018-04-18T07:55:48.417Z,201
2018-04-18T07:56:55.812Z,200
2018-04-18T07:58:03.037Z,201
2018-04-18T07:59:10.249Z,200
2018-04-18T08:00:17.472Z,200
2018-04-18T08:01:24.689Z,200
2018-04-18T08:02:31.915Z,200
2018-04-18T08:03:39.128Z,200
2018-04-18T08:04:46.066Z,201
2018-04-18T08:05:52.997Z,201
2018-04-18T08:06:59.948Z,200
2018-04-18T08:08:07.169Z,200
2018-04-18T08:09:14.393Z,200
2018-04-18T08:10:21.334Z,200
2018-04-18T08:11:28.559Z,200
2018-04-18T08:12:35.778Z,201
2018-04-18T08:13:42.991Z,202
2018-04-18T08:14:49.936Z,200
2018-04-18T08:15:57.152Z,200
2018-04-18T08:17:04.606Z,200
2018-04-18T08:18:11.816Z,200
2018-04-18T08:19:18.497Z,202
2018-04-18T08:20:25.720Z,202
2018-04-18T08:21:32.955Z,201
2018-04-18T08:22:40.194Z,202
2018-04-18T08:23:47.410Z,202
2018-04-18T08:24:54.645Z,202
2018-04-18T08:26:01.922Z,202
2018-04-18T08:27:09.141Z,202
2018-04-18T08:28:16.389Z,200
2018-04-18T08:29:23.607Z,199
2018-04-18T08:30:30.846Z,199
2018-04-18T08:31:38.065Z,200
2018-04-18T08:32:45.041Z,201
2018-04-18T08:33:51.985Z,201
2018-04-18T08:34:59.203Z,202
2018-04-18T08:36:06.416Z,202
2018-04-18T08:37:13.662Z,201
2018-04-18T08:38:20.880Z,200
2018-04-18T08:39:28.127Z,199
2018-04-18T08:40:35.348Z,198
2018-04-18T08:41:42.732Z,198
2018-04-18T08:42:49.954Z,198
2018-04-18T08:43:57.185Z,200
2018-04-18T08:45:04.143Z,201
2018-04-18T08:46:10.817Z,202
2018-04-18T08:47:18.039Z,202
2018-04-18T08:48:25.264Z,201
2018-04-18T08:49:32.485Z,200
2018-04-18T08:50:39.697Z,200
2018-04-18T08:51:46.644Z,201
2018-04-18T08:52:53.862Z,200
2018-04-18T08:54:00.822Z,201
2018-04-18T08:55:08.037Z,202
2018-04-18T08:56:15.257Z,202
2018-04-18T08:57:22.472Z,200
2018-04-18T08:58:29.413Z,200
2018-04-18T08:59:36.625Z,200
2018-04-18T09:00:43.837Z,200
2018-04-18T09:01:51.060Z,201
2018-04-18T09:02:58.287Z,201
2018-04-18T09:04:04.993Z,200
2018-04-18T09:05:12.219Z,199
2018-04-18T09:06:19.483Z,200
2018-04-18T09:07:26.713Z,199
2018-04-18T09:08:33.684Z,198
2018-04-18T09:09:40.902Z,199
2018-04-18T09:10:48.172Z,199
2018-04-18T09:11:55.514Z,200
2018-04-18T09:13:02.731Z,198
2018-04-18T09:14:09.948Z,198
2018-04-18T09:15:17.176Z,198
2018-04-18T09:16:24.392Z,200
2018-04-18T09:17:31.671Z,198
2018-04-18T09:18:38.895Z,200
2018-04-18T09:19:46.114Z,200
2018-04-18T09:20:53.315Z,200
2018-04-18T09:22:00.558Z,200
2018-04-18T09:23:07.783Z,199
2018-04-18T09:24:15.016Z,200
2018-04-18T09:25:22.248Z,200
2018-04-18T09:26:29.467Z,199
2018-04-18T09:27:36.684Z,199
2018-04-18T09:28:43.628Z,200
2018-04-18T09:29:50.854Z,201
2018-04-18T09:30:58.068Z,200
2018-04-18T09:32:05.288Z,199
2018-04-18T09:33:12.235Z,198
2018-04-18T09:34:19.176Z,198
2018-04-18T09:35:26.189Z,198
2018-04-18T09:36:33.401Z,198
2018-04-18T09:37:40.338Z,199
2018-04-18T09:38:47.567Z,199
2018-04-18T09:39:54.938Z,197
2018-04-18T09:41:02.156Z,195
2018-04-18T09:42:09.096Z,196
2018-04-18T09:43:16.319Z,197
2018-04-18T09:44:23.529Z,198
2018-04-18T09:45:30.905Z,197
2018-04-18T09:46:38.679Z,197
2018-04-18T09:47:45.360Z,196
2018-04-18T09:48:52.637Z,196
2018-04-18T09:49:59.879Z,195
2018-04-18T09:51:06.815Z,196
2018-04-18T09:52:14.039Z,196
2018-04-18T09:53:21.274Z,196
2018-04-18T09:54:28.218Z,196
2018-04-18T09:55:35.446Z,198
2018-04-18T09:56:42.664Z,200
2018-04-18T09:57:49.882Z,199
2018-04-18T09:58:57.106Z,197
2018-04-18T10:00:04.334Z,196
2018-04-18T10:01:11.557Z,197
2018-04-18T10:02:18.782Z,197
2018-04-18T10:03:25.993Z,193
2018-04-18T10:04:33.214Z,192
2018-04-18T10:05:40.446Z,193
2018-04-18T10:06:47.117Z,191
2018-04-18T10:07:54.335Z,194
2018-04-18T10:09:01.560Z,197
2018-04-18T10:10:08.787Z,195
2018-04-18T10:11:16.014Z,194
2018-04-18T10:12:23.230Z,190
2018-04-18T10:13:30.448Z,193
2018-04-18T10:14:37.672Z,191
2018-04-18T10:15:44.624Z,190
2018-04-18T10:16:51.843Z,190
2018-04-18T10:17:59.066Z,187
2018-04-18T10:19:06.290Z,189
2018-04-18T10:20:13.503Z,192
2018-04-18T10:21:20.730Z,193
2018-04-18T10:22:27.962Z,196
2018-04-18T10:23:35.185Z,195
2018-04-18T10:24:42.147Z,195
2018-04-18T10:25:49.101Z,196
2018-04-18T10:26:56.338Z,195
2018-04-18T10:28:03.558Z,189
2018-04-18T10:29:10.832Z,190
2018-04-18T10:30:18.052Z,188
2018-04-18T10:31:25.273Z,188
2018-04-18T10:32:32.488Z,189
2018-04-18T10:33:39.725Z,188
2018-04-18T10:34:46.948Z,189
2018-04-18T10:35:54.177Z,187
2018-04-18T10:37:01.405Z,186
2018-04-18T10:38:08.769Z,190
2018-04-18T10:39:16.088Z,188
2018-04-18T10:40:23.331Z,191
2018-04-18T10:41:30.563Z,197
2018-04-18T10:42:37.527Z,196
2018-04-18T10:43:44.755Z,197
2018-04-18T10:44:51.979Z,196
2018-04-18T10:45:59.200Z,192
2018-04-18T10:47:06.418Z,191
2018-04-18T10:48:13.380Z,189
2018-04-18T10:49:20.591Z,186
2018-04-18T10:50:27.829Z,188
2018-04-18T10:51:35.045Z,195
2018-04-18T10:52:42.267Z,195
2018-04-18T10:53:49.488Z,192
2018-04-18T10:54:56.714Z,190
2018-04-18T10:56:03.659Z,186
2018-04-18T10:57:10.883Z,187
2018-04-18T10:58:18.103Z,187
2018-04-18T10:59:25.342Z,187
2018-04-18T11:00:32.570Z,187
2018-04-18T11:01:39.807Z,188
2018-04-18T11:02:46.765Z,191
2018-04-18T11:03:53.443Z,187
2018-04-18T11:05:00.412Z,184
2018-04-18T11:06:07.622Z,188
2018-04-18T11:07:14.853Z,192
2018-04-18T11:08:36.720Z,192
2018-04-18T11:09:43.980Z,198
2018-04-18T11:10:51.212Z,198
2018-04-18T11:11:58.452Z,198
2018-04-18T11:13:05.672Z,197
2018-04-18T11:14:12.909Z,192
2018-04-18T11:15:20.145Z,196
2018-04-18T11:16:27.375Z,197
2018-04-18T11:17:34.593Z,197
2018-04-18T11:18:41.993Z,191
2018-04-18T11:19:48.956Z,187
2018-04-18T11:20:56.178Z,192
2018-04-18T11:22:03.134Z,197
2018-04-18T11:23:10.080Z,199
2018-04-18T11:24:17.298Z,198
2018-04-18T11:25:24.512Z,192
2018-04-18T11:26:31.737Z,186
2018-04-18T11:27:38.976Z,190
2018-04-18T11:28:46.193Z,193
2018-04-18T11:29:53.415Z,194
2018-04-18T11:31:00.633Z,191
2018-04-18T11:32:07.871Z,192
2018-04-18T11:33:15.094Z,192
2018-04-18T11:34:22.314Z,189
2018-04-18T11:35:29.545Z,191
2018-04-18T11:36:36.772Z,192
2018-04-18T11:37:43.993Z,188
2018-04-18T11:38:50.953Z,182
2018-04-18T11:39:57.880Z,181
2018-04-18T11:41:05.101Z,180
2018-04-18T11:42:12.324Z,186
2018-04-18T11:43:19.578Z,187
2018-04-18T11:44:26.833Z,185
2018-04-18T11:45:34.192Z,191
2018-04-18T11:46:41.134Z,189
2018-04-18T11:47:48.096Z,195
2018-04-18T11:48:55.325Z,199
2018-04-18T11:50:02.554Z,202
2018-04-18T11:51:09.850Z,194
2018-04-18T11:52:17.176Z,191
2018-04-18T11:53:24.387Z,195
2018-04-18T11:54:31.610Z,196
2018-04-18T11:55:38.835Z,196
2018-04-18T11:56:46.057Z,194
2018-04-18T11:57:53.281Z,197
2018-04-18T11:59:00.495Z,201
2018-04-18T12:00:07.731Z,200
2018-04-18T12:01:15.103Z,196
2018-04-18T12:02:22.557Z,199
2018-04-18T12:03:29.517Z,195
2018-04-18T12:04:36.742Z,191
2018-04-18T12:05:43.707Z,191
2018-04-18T12:06:50.696Z,185
2018-04-18T12:07:57.644Z,188
2018-04-18T12:09:04.870Z,192
2018-04-18T12:10:12.097Z,195
2018-04-18T12:11:19.319Z,189
2018-04-18T12:12:26.271Z,188
2018-04-18T12:13:33.488Z,188
2018-04-18T12:14:40.710Z,187
2018-04-18T12:15:47.950Z,194
2018-04-18T12:16:55.179Z,198
2018-04-18T12:18:02.140Z,196
2018-04-18T12:19:09.396Z,191
2018-04-18T12:20:16.621Z,187
2018-04-18T12:21:23.844Z,182
2018-04-18T12:22:31.075Z,187
2018-04-18T12:23:38.310Z,193
2018-04-18T12:24:45.271Z,188
2018-04-18T12:25:52.501Z,185
2018-04-18T12:26:59.730Z,187
2018-04-18T12:28:06.984Z,186
2018-04-18T12:29:14.213Z,184
2018-04-18T12:30:21.461Z,181
2018-04-18T12:31:28.680Z,180
2018-04-18T12:32:35.919Z,180
2018-04-18T12:33:43.199Z,185
2018-04-18T12:34:50.182Z,185
2018-04-18T12:35:57.404Z,186
2018-04-18T12:37:04.351Z,186
2018-04-18T12:38:11.569Z,184
2018-04-18T12:39:18.810Z,182
2018-04-18T12:40:26.022Z,181
2018-04-18T12:41:33.259Z,181
2018-04-18T12:42:40.494Z,183
2018-04-18T12:43:47.823Z,182
2018-04-18T12:44:55.036Z,179
2018-04-18T12:46:02.261Z,180
2018-04-18T12:47:09.208Z,182
2018-04-18T12:48:16.162Z,185
2018-04-18T12:49:23.110Z,191
2018-04-18T12:50:30.343Z,193
2018-04-18T12:51:37.560Z,191
2018-04-18T12:52:44.808Z,190
2018-04-18T12:53:52.047Z,187
2018-04-18T12:54:58.993Z,185
2018-04-18T12:56:06.219Z,191
2018-04-18T12:57:13.467Z,192
2018-04-18T12:58:20.693Z,187
2018-04-18T12:59:27.637Z,186
2018-04-18T13:00:34.864Z,189
2018-04-18T13:01:42.116Z,191
2018-04-18T13:02:49.346Z,188
2018-04-18T13:03:56.574Z,184
2018-04-18T13:05:03.533Z,185
2018-04-18T13:06:10.764Z,186
2018-04-18T13:07:17.711Z,186
2018-04-18T13:08:24.959Z,187
2018-04-18T13:09:32.191Z,186
2018-04-18T13:10:39.509Z,185
2018-04-18T13:11:46.803Z,191
2018-04-18T13:12:54.037Z,187
2018-04-18T13:14:00.725Z,189
2018-04-18T13:15:07.974Z,191
2018-04-18T13:16:15.199Z,193
2018-04-18T13:17:36.536Z,192
2018-04-18T13:18:43.764Z,190
2018-04-18T13:19:50.982Z,188
2018-04-18T13:20:58.211Z,187
2018-04-18T13:22:05.438Z,187
2018-04-18T13:23:12.661Z,188
2018-04-18T13:24:19.883Z,185
2018-04-18T13:25:27.200Z,186
2018-04-18T13:26:34.120Z,186
2018-04-18T13:27:41.583Z,185
2018-04-18T13:28:48.816Z,185
2018-04-18T13:29:55.776Z,187
2018-04-18T13:31:03.155Z,185
2018-04-18T13:32:10.128Z,184
2018-04-18T13:33:17.353Z,188
2018-04-18T13:34:24.590Z,189
2018-04-18T13:35:31.825Z,191
2018-04-18T13:36:39.056Z,192
2018-04-18T13:37:46.328Z,191
2018-04-18T13:38:53.540Z,190
2018-04-18T13:40:00.765Z,187
2018-04-18T13:41:07.997Z,188
2018-04-18T13:42:15.223Z,187
2018-04-18T13:43:22.446Z,189
2018-04-18T13:44:29.680Z,189
2018-04-18T13:45:36.632Z,187
2018-04-18T13:46:43.865Z,186
2018-04-18T13:47:51.087Z,189
2018-04-18T13:48:58.549Z,192
2018-04-18T13:50:05.782Z,191
2018-04-18T13:51:13.003Z,197
2018-04-18T13:52:20.237Z,203
2018-04-18T13:53:27.457Z,203
2018-04-18T13:54:34.690Z,201
2018-04-18T13:55:41.979Z,193
2018-04-18T13:56:48.920Z,190
2018-04-18T13:57:56.148Z,188
2018-04-18T13:59:03.375Z,189
2018-04-18T14:00:10.618Z,193
2018-04-18T14:01:17.851Z,191
2018-04-18T14:02:25.108Z,191
2018-04-18T14:03:32.341Z,191
2018-04-18T14:04:39.580Z,190
2018-04-18T14:05:47.062Z,189
2018-04-18T14:06:54.279Z,189
2018-04-18T14:08:01.526Z,191
2018-04-18T14:09:08.757Z,189
2018-04-18T14:10:15.978Z,189
2018-04-18T14:11:23.198Z,195
2018-04-18T14:12:30.428Z,193
2018-04-18T14:13:37.355Z,198
2018-04-18T14:14:44.582Z,196
2018-04-18T14:15:51.807Z,194
2018-04-18T14:16:58.482Z,197
2018-04-18T14:18:05.439Z,197
2018-04-18T14:19:12.668Z,195
2018-04-18T14:20:19.901Z,198
2018-04-18T14:21:27.145Z,200
2018-04-18T14:22:34.361Z,202
2018-04-18T14:23:41.608Z,203
2018-04-18T14:24:48.829Z,205
2018-04-18T14:25:56.063Z,199
2018-04-18T14:27:03.287Z,195
2018-04-18T14:28:10.520Z,193
2018-04-18T14:29:17.738Z,191
2018-04-18T14:30:24.684Z,189
2018-04-18T14:31:31.937Z,189
2018-04-18T14:32:39.200Z,190
2018-04-18T14:33:46.191Z,191
2018-04-18T14:34:53.478Z,191
2018-04-18T14:36:00.427Z,190
2018-04-18T14:37:07.374Z,191
2018-04-18T14:38:14.597Z,193
2018-04-18T14:39:21.868Z,196
2018-04-18T14:40:29.098Z,201
2018-04-18T14:41:36.050Z,204
2018-04-18T14:42:43.282Z,202
2018-04-18T14:43:50.537Z,202
2018-04-18T14:44:57.764Z,201
2018-04-18T14:46:04.995Z,200
2018-04-18T14:47:12.279Z,202
2018-04-18T14:48:19.505Z,197
2018-04-18T14:49:26.733Z,194
2018-04-18T14:50:33.956Z,195
2018-04-18T14:51:41.185Z,195
2018-04-18T14:52:48.444Z,197
2018-04-18T14:53:55.669Z,197
2018-04-18T14:55:02.903Z,196
2018-04-18T14:56:10.128Z,200
2018-04-18T14:57:17.074Z,199
2018-04-18T14:58:24.297Z,196
2018-04-18T14:59:31.239Z,195
2018-04-18T15:00:38.465Z,196
2018-04-18T15:01:45.693Z,195
2018-04-18T15:02:52.938Z,194
2018-04-18T15:04:00.166Z,194
2018-04-18T15:05:07.408Z,198
2018-04-18T15:06:14.631Z,196
2018-04-18T15:07:21.628Z,202
2018-04-18T15:08:28.870Z,208
2018-04-18T15:09:36.102Z,204
2018-04-18T15:10:43.351Z,201
2018-04-18T15:11:50.571Z,199
2018-04-18T15:12:57.798Z,198
2018-04-18T15:14:05.091Z,195
2018-04-18T15:15:12.338Z,198
2018-04-18T15:16:19.613Z,199
2018-04-18T15:17:26.837Z,198
2018-04-18T15:18:33.515Z,198
2018-04-18T15:19:40.733Z,200
2018-04-18T15:20:47.976Z,200
2018-04-18T15:21:55.202Z,198
2018-04-18T15:23:02.431Z,199
2018-04-18T15:24:09.656Z,200
2018-04-18T15:25:16.898Z,200
2018-04-18T15:26:23.846Z,200